sensor_id;sensor_type;location;lat;lon;timestamp;temperature;humidity
8711;DHT22;4392;47.400;8.062;2023-10-31T00:01:47;13.90;99.90
8711;DHT22;4392;47.400;8.062;2023-10-31T00:04:14;13.80;99.90
8711;DHT22;4392;47.400;8.062;2023-10-31T00:06:40;13.80;99.90
8711;DHT22;4392;47.400;8.062;2023-10-31T00:09:06;13.80;99.90
8711;DHT22;4392;47.400;8.062;2023-10-31T00:11:32;13.70;99.90
8711;DHT22;4392;47.400;8.062;2023-10-31T00:13:59;13.70;99.90
8711;DHT22;4392;47.400;8.062;2023-10-31T00:16:25;13.60;99.90
8711;DHT22;4392;47.400;8.062;2023-10-31T00:18:53;13.70;99.90
8711;DHT22;4392;47.400;8.062;2023-10-31T00:21:19;14.50;99.90
8711;DHT22;4392;47.400;8.062;2023-10-31T00:23:46;15.10;99.90
8711;DHT22;4392;47.400;8.062;2023-10-31T00:26:12;14.70;99.90
8711;DHT22;4392;47.400;8.062;2023-10-31T00:28:37;14.30;99.90
8711;DHT22;4392;47.400;8.062;2023-10-31T00:31:03;14.00;99.90
8711;DHT22;4392;47.400;8.062;2023-10-31T00:33:29;13.80;99.90
8711;DHT22;4392;47.400;8.062;2023-10-31T00:35:55;13.70;99.90
8711;DHT22;4392;47.400;8.062;2023-10-31T00:38:21;13.70;99.90
8711;DHT22;4392;47.400;8.062;2023-10-31T00:40:47;13.60;99.90
8711;DHT22;4392;47.400;8.062;2023-10-31T00:43:12;13.60;99.90
8711;DHT22;4392;47.400;8.062;2023-10-31T00:45:38;13.50;99.90
8711;DHT22;4392;47.400;8.062;2023-10-31T00:48:04;13.50;99.90
8711;DHT22;4392;47.400;8.062;2023-10-31T00:50:30;13.50;99.90
8711;DHT22;4392;47.400;8.062;2023-10-31T00:52:55;13.40;99.90
8711;DHT22;4392;47.400;8.062;2023-10-31T00:55:21;13.40;99.90
8711;DHT22;4392;47.400;8.062;2023-10-31T00:57:47;13.30;99.90
8711;DHT22;4392;47.400;8.062;2023-10-31T01:00:13;13.00;99.90
8711;DHT22;4392;47.400;8.062;2023-10-31T01:02:38;13.10;99.90
8711;DHT22;4392;47.400;8.062;2023-10-31T01:05:04;13.20;99.90
8711;DHT22;4392;47.400;8.062;2023-10-31T01:07:30;13.10;99.90
8711;DHT22;4392;47.400;8.062;2023-10-31T01:09:56;13.00;99.90
8711;DHT22;4392;47.400;8.062;2023-10-31T01:12:22;13.00;99.90
8711;DHT22;4392;47.400;8.062;2023-10-31T01:14:50;13.00;99.90
8711;DHT22;4392;47.400;8.062;2023-10-31T01:17:15;13.00;99.90
8711;DHT22;4392;47.400;8.062;2023-10-31T01:19:43;13.10;99.90
8711;DHT22;4392;47.400;8.062;2023-10-31T01:22:09;13.10;99.90
8711;DHT22;4392;47.400;8.062;2023-10-31T01:24:35;13.10;99.90
8711;DHT22;4392;47.400;8.062;2023-10-31T01:27:00;13.20;99.90
8711;DHT22;4392;47.400;8.062;2023-10-31T01:29:26;13.80;99.90
8711;DHT22;4392;47.400;8.062;2023-10-31T01:31:51;14.60;99.90
8711;DHT22;4392;47.400;8.062;2023-10-31T01:34:17;14.40;99.90
8711;DHT22;4392;47.400;8.062;2023-10-31T01:36:45;13.90;99.90
8711;DHT22;4392;47.400;8.062;2023-10-31T01:39:10;13.60;99.90
8711;DHT22;4392;47.400;8.062;2023-10-31T01:41:36;13.50;99.90
8711;DHT22;4392;47.400;8.062;2023-10-31T01:44:04;13.50;99.90
8711;DHT22;4392;47.400;8.062;2023-10-31T01:46:30;13.50;99.90
8711;DHT22;4392;47.400;8.062;2023-10-31T01:48:55;13.50;99.90
8711;DHT22;4392;47.400;8.062;2023-10-31T01:51:23;13.40;99.90
8711;DHT22;4392;47.400;8.062;2023-10-31T01:53:49;13.40;99.90
8711;DHT22;4392;47.400;8.062;2023-10-31T01:56:15;14.10;99.90
8711;DHT22;4392;47.400;8.062;2023-10-31T01:58:43;14.50;99.90
8711;DHT22;4392;47.400;8.062;2023-10-31T02:01:09;14.10;99.90
8711;DHT22;4392;47.400;8.062;2023-10-31T02:03:34;13.90;99.90
8711;DHT22;4392;47.400;8.062;2023-10-31T02:06:00;13.60;99.90
8711;DHT22;4392;47.400;8.062;2023-10-31T02:08:26;13.60;99.90
8711;DHT22;4392;47.400;8.062;2023-10-31T02:10:52;13.60;99.90
8711;DHT22;4392;47.400;8.062;2023-10-31T02:13:18;14.40;99.90
8711;DHT22;4392;47.400;8.062;2023-10-31T02:15:44;14.10;99.90
8711;DHT22;4392;47.400;8.062;2023-10-31T02:18:10;13.80;99.90
8711;DHT22;4392;47.400;8.062;2023-10-31T02:20:36;13.60;99.90
8711;DHT22;4392;47.400;8.062;2023-10-31T02:23:03;14.00;99.90
8711;DHT22;4392;47.400;8.062;2023-10-31T02:25:29;14.70;99.90
8711;DHT22;4392;47.400;8.062;2023-10-31T02:27:55;14.60;99.90
8711;DHT22;4392;47.400;8.062;2023-10-31T02:30:21;14.30;99.90
8711;DHT22;4392;47.400;8.062;2023-10-31T02:32:49;14.00;99.90
8711;DHT22;4392;47.400;8.062;2023-10-31T02:35:18;13.80;99.90
8711;DHT22;4392;47.400;8.062;2023-10-31T02:37:45;13.80;99.90
8711;DHT22;4392;47.400;8.062;2023-10-31T02:40:11;13.70;99.90
8711;DHT22;4392;47.400;8.062;2023-10-31T02:42:37;13.70;99.90
8711;DHT22;4392;47.400;8.062;2023-10-31T02:45:03;14.10;99.90
8711;DHT22;4392;47.400;8.062;2023-10-31T02:47:29;14.80;99.90
8711;DHT22;4392;47.400;8.062;2023-10-31T02:49:55;15.20;99.90
8711;DHT22;4392;47.400;8.062;2023-10-31T02:52:23;15.30;99.90
8711;DHT22;4392;47.400;8.062;2023-10-31T02:54:51;15.40;99.90
8711;DHT22;4392;47.400;8.062;2023-10-31T02:57:19;15.40;99.90
8711;DHT22;4392;47.400;8.062;2023-10-31T02:59:44;15.40;99.90
8711;DHT22;4392;47.400;8.062;2023-10-31T03:02:11;15.10;99.90
8711;DHT22;4392;47.400;8.062;2023-10-31T03:04:37;15.00;99.90
8711;DHT22;4392;47.400;8.062;2023-10-31T03:07:03;14.90;99.90
8711;DHT22;4392;47.400;8.062;2023-10-31T03:09:29;14.40;99.90
8711;DHT22;4392;47.400;8.062;2023-10-31T03:11:54;14.10;99.90
8711;DHT22;4392;47.400;8.062;2023-10-31T03:14:20;13.90;99.90
8711;DHT22;4392;47.400;8.062;2023-10-31T03:16:46;14.50;99.90
8711;DHT22;4392;47.400;8.062;2023-10-31T03:19:12;15.10;99.90
8711;DHT22;4392;47.400;8.062;2023-10-31T03:21:38;14.80;99.90
8711;DHT22;4392;47.400;8.062;2023-10-31T03:24:04;15.20;99.90
8711;DHT22;4392;47.400;8.062;2023-10-31T03:26:29;15.40;99.90
8711;DHT22;4392;47.400;8.062;2023-10-31T03:28:57;15.60;99.90
8711;DHT22;4392;47.400;8.062;2023-10-31T03:31:23;15.60;99.90
8711;DHT22;4392;47.400;8.062;2023-10-31T03:33:49;15.60;99.90
8711;DHT22;4392;47.400;8.062;2023-10-31T03:36:15;15.50;99.90
8711;DHT22;4392;47.400;8.062;2023-10-31T03:38:41;15.00;99.90
8711;DHT22;4392;47.400;8.062;2023-10-31T03:41:07;14.60;99.90
8711;DHT22;4392;47.400;8.062;2023-10-31T03:43:33;14.40;99.90
8711;DHT22;4392;47.400;8.062;2023-10-31T03:45:59;14.10;99.90
8711;DHT22;4392;47.400;8.062;2023-10-31T03:48:24;14.00;99.90
8711;DHT22;4392;47.400;8.062;2023-10-31T03:50:50;13.90;99.90
8711;DHT22;4392;47.400;8.062;2023-10-31T03:53:16;13.80;99.90
8711;DHT22;4392;47.400;8.062;2023-10-31T03:55:42;13.70;99.90
8711;DHT22;4392;47.400;8.062;2023-10-31T03:58:08;13.70;99.90
8711;DHT22;4392;47.400;8.062;2023-10-31T04:00:33;13.60;99.90
8711;DHT22;4392;47.400;8.062;2023-10-31T04:02:59;13.60;99.90
8711;DHT22;4392;47.400;8.062;2023-10-31T04:05:25;13.60;99.90
8711;DHT22;4392;47.400;8.062;2023-10-31T04:07:50;13.50;99.90
8711;DHT22;4392;47.400;8.062;2023-10-31T04:10:18;13.50;99.90
8711;DHT22;4392;47.400;8.062;2023-10-31T04:12:44;13.40;99.90
8711;DHT22;4392;47.400;8.062;2023-10-31T04:15:09;13.40;99.90
8711;DHT22;4392;47.400;8.062;2023-10-31T04:17:35;13.40;99.90
8711;DHT22;4392;47.400;8.062;2023-10-31T04:20:01;13.30;99.90
8711;DHT22;4392;47.400;8.062;2023-10-31T04:22:27;13.30;99.90
8711;DHT22;4392;47.400;8.062;2023-10-31T04:24:53;13.30;99.90
8711;DHT22;4392;47.400;8.062;2023-10-31T04:27:19;13.40;99.90
8711;DHT22;4392;47.400;8.062;2023-10-31T04:29:45;13.40;99.90
8711;DHT22;4392;47.400;8.062;2023-10-31T04:32:11;13.90;99.90
8711;DHT22;4392;47.400;8.062;2023-10-31T04:34:37;14.10;99.90
8711;DHT22;4392;47.400;8.062;2023-10-31T04:37:02;13.90;99.90
8711;DHT22;4392;47.400;8.062;2023-10-31T04:39:28;13.80;99.90
8711;DHT22;4392;47.400;8.062;2023-10-31T04:41:54;13.80;99.90
8711;DHT22;4392;47.400;8.062;2023-10-31T04:44:19;13.70;99.90
8711;DHT22;4392;47.400;8.062;2023-10-31T04:46:45;13.60;99.90
8711;DHT22;4392;47.400;8.062;2023-10-31T04:49:13;13.40;99.90
8711;DHT22;4392;47.400;8.062;2023-10-31T04:51:38;13.30;99.90
8711;DHT22;4392;47.400;8.062;2023-10-31T04:54:05;13.30;99.90
8711;DHT22;4392;47.400;8.062;2023-10-31T04:56:31;13.20;99.90
8711;DHT22;4392;47.400;8.062;2023-10-31T04:58:56;13.20;99.90
8711;DHT22;4392;47.400;8.062;2023-10-31T05:01:22;13.20;99.90
8711;DHT22;4392;47.400;8.062;2023-10-31T05:03:48;13.30;99.90
8711;DHT22;4392;47.400;8.062;2023-10-31T05:06:21;13.30;99.90
8711;DHT22;4392;47.400;8.062;2023-10-31T05:08:48;13.30;99.90
8711;DHT22;4392;47.400;8.062;2023-10-31T05:11:16;13.30;99.90
8711;DHT22;4392;47.400;8.062;2023-10-31T05:13:41;13.20;99.90
8711;DHT22;4392;47.400;8.062;2023-10-31T05:16:07;13.30;99.90
8711;DHT22;4392;47.400;8.062;2023-10-31T05:18:33;13.30;99.90
8711;DHT22;4392;47.400;8.062;2023-10-31T05:20:59;13.40;99.90
8711;DHT22;4392;47.400;8.062;2023-10-31T05:23:24;13.30;99.90
8711;DHT22;4392;47.400;8.062;2023-10-31T05:25:50;13.20;99.90
8711;DHT22;4392;47.400;8.062;2023-10-31T05:28:15;13.30;99.90
8711;DHT22;4392;47.400;8.062;2023-10-31T05:30:41;13.40;99.90
8711;DHT22;4392;47.400;8.062;2023-10-31T05:33:09;13.40;99.90
8711;DHT22;4392;47.400;8.062;2023-10-31T05:35:35;13.20;99.90
8711;DHT22;4392;47.400;8.062;2023-10-31T05:38:01;13.50;99.90
8711;DHT22;4392;47.400;8.062;2023-10-31T05:40:26;14.10;99.90
8711;DHT22;4392;47.400;8.062;2023-10-31T05:42:53;13.90;99.90
8711;DHT22;4392;47.400;8.062;2023-10-31T05:45:18;13.60;99.90
8711;DHT22;4392;47.400;8.062;2023-10-31T05:47:44;13.40;99.90
8711;DHT22;4392;47.400;8.062;2023-10-31T05:50:10;13.30;99.90
8711;DHT22;4392;47.400;8.062;2023-10-31T05:52:35;13.20;99.90
8711;DHT22;4392;47.400;8.062;2023-10-31T05:55:02;13.10;99.90
8711;DHT22;4392;47.400;8.062;2023-10-31T05:57:27;13.10;99.90
8711;DHT22;4392;47.400;8.062;2023-10-31T05:59:53;13.00;99.90
8711;DHT22;4392;47.400;8.062;2023-10-31T06:02:19;13.00;99.90
8711;DHT22;4392;47.400;8.062;2023-10-31T06:04:44;13.00;99.90
8711;DHT22;4392;47.400;8.062;2023-10-31T06:07:14;12.90;99.90
8711;DHT22;4392;47.400;8.062;2023-10-31T06:09:39;12.80;99.90
8711;DHT22;4392;47.400;8.062;2023-10-31T06:12:05;12.80;99.90
8711;DHT22;4392;47.400;8.062;2023-10-31T06:14:31;12.90;99.90
8711;DHT22;4392;47.400;8.062;2023-10-31T06:16:57;12.90;99.90
8711;DHT22;4392;47.400;8.062;2023-10-31T06:19:24;12.90;99.90
8711;DHT22;4392;47.400;8.062;2023-10-31T06:21:50;12.90;99.90
8711;DHT22;4392;47.400;8.062;2023-10-31T06:24:16;13.40;99.90
8711;DHT22;4392;47.400;8.062;2023-10-31T06:26:41;13.90;99.90
8711;DHT22;4392;47.400;8.062;2023-10-31T06:29:07;13.90;99.90
8711;DHT22;4392;47.400;8.062;2023-10-31T06:31:33;14.50;99.90
8711;DHT22;4392;47.400;8.062;2023-10-31T06:33:58;14.50;99.90
8711;DHT22;4392;47.400;8.062;2023-10-31T06:36:24;14.10;99.90
8711;DHT22;4392;47.400;8.062;2023-10-31T06:38:52;14.30;99.90
8711;DHT22;4392;47.400;8.062;2023-10-31T06:41:17;14.70;99.90
8711;DHT22;4392;47.400;8.062;2023-10-31T06:43:43;15.00;99.90
8711;DHT22;4392;47.400;8.062;2023-10-31T06:46:09;14.60;99.90
8711;DHT22;4392;47.400;8.062;2023-10-31T06:48:34;14.10;99.90
8711;DHT22;4392;47.400;8.062;2023-10-31T06:51:00;13.90;99.90
8711;DHT22;4392;47.400;8.062;2023-10-31T06:53:26;13.60;99.90
8711;DHT22;4392;47.400;8.062;2023-10-31T06:55:51;13.40;99.90
8711;DHT22;4392;47.400;8.062;2023-10-31T06:58:19;13.60;99.90
8711;DHT22;4392;47.400;8.062;2023-10-31T07:00:47;14.50;99.90
8711;DHT22;4392;47.400;8.062;2023-10-31T07:03:13;14.60;99.90
8711;DHT22;4392;47.400;8.062;2023-10-31T07:05:41;14.10;99.90
8711;DHT22;4392;47.400;8.062;2023-10-31T07:08:07;13.50;99.90
8711;DHT22;4392;47.400;8.062;2023-10-31T07:10:33;14.20;99.90
8711;DHT22;4392;47.400;8.062;2023-10-31T07:12:59;14.80;99.90
8711;DHT22;4392;47.400;8.062;2023-10-31T07:15:25;14.70;99.90
8711;DHT22;4392;47.400;8.062;2023-10-31T07:17:51;14.20;99.90
8711;DHT22;4392;47.400;8.062;2023-10-31T07:20:16;13.80;99.90
8711;DHT22;4392;47.400;8.062;2023-10-31T07:22:42;14.10;99.90
8711;DHT22;4392;47.400;8.062;2023-10-31T07:25:08;14.60;99.90
8711;DHT22;4392;47.400;8.062;2023-10-31T07:27:34;14.40;99.90
8711;DHT22;4392;47.400;8.062;2023-10-31T07:30:01;14.00;99.90
8711;DHT22;4392;47.400;8.062;2023-10-31T07:32:27;13.70;99.90
8711;DHT22;4392;47.400;8.062;2023-10-31T07:34:57;13.00;99.90
8711;DHT22;4392;47.400;8.062;2023-10-31T07:37:23;12.90;99.90
8711;DHT22;4392;47.400;8.062;2023-10-31T07:39:49;13.00;99.90
8711;DHT22;4392;47.400;8.062;2023-10-31T07:42:16;13.10;99.90
8711;DHT22;4392;47.400;8.062;2023-10-31T07:44:42;13.10;99.90
8711;DHT22;4392;47.400;8.062;2023-10-31T07:47:07;13.10;99.90
8711;DHT22;4392;47.400;8.062;2023-10-31T07:49:33;13.10;99.90
8711;DHT22;4392;47.400;8.062;2023-10-31T07:51:59;12.90;99.90
8711;DHT22;4392;47.400;8.062;2023-10-31T07:54:24;12.90;99.90
8711;DHT22;4392;47.400;8.062;2023-10-31T07:56:50;13.00;99.90
8711;DHT22;4392;47.400;8.062;2023-10-31T07:59:18;12.90;99.90
8711;DHT22;4392;47.400;8.062;2023-10-31T08:01:44;12.70;99.90
8711;DHT22;4392;47.400;8.062;2023-10-31T08:04:09;12.80;99.90
8711;DHT22;4392;47.400;8.062;2023-10-31T08:06:35;12.90;99.90
8711;DHT22;4392;47.400;8.062;2023-10-31T08:09:03;12.90;99.90
8711;DHT22;4392;47.400;8.062;2023-10-31T08:11:29;13.00;99.90
8711;DHT22;4392;47.400;8.062;2023-10-31T08:13:54;13.00;99.90
8711;DHT22;4392;47.400;8.062;2023-10-31T08:16:20;13.00;99.90
8711;DHT22;4392;47.400;8.062;2023-10-31T08:18:46;13.00;99.90
8711;DHT22;4392;47.400;8.062;2023-10-31T08:21:12;12.90;99.90
8711;DHT22;4392;47.400;8.062;2023-10-31T08:23:38;12.90;99.90
8711;DHT22;4392;47.400;8.062;2023-10-31T08:26:04;12.90;99.90
8711;DHT22;4392;47.400;8.062;2023-10-31T08:28:30;13.00;99.90
8711;DHT22;4392;47.400;8.062;2023-10-31T08:30:57;12.90;99.90
8711;DHT22;4392;47.400;8.062;2023-10-31T08:33:23;12.90;99.90
8711;DHT22;4392;47.400;8.062;2023-10-31T08:35:48;12.90;99.90
8711;DHT22;4392;47.400;8.062;2023-10-31T08:38:14;12.70;99.90
8711;DHT22;4392;47.400;8.062;2023-10-31T08:40:40;12.70;99.90
8711;DHT22;4392;47.400;8.062;2023-10-31T08:43:06;12.80;99.90
8711;DHT22;4392;47.400;8.062;2023-10-31T08:45:33;13.00;99.90
8711;DHT22;4392;47.400;8.062;2023-10-31T08:47:59;14.00;99.90
8711;DHT22;4392;47.400;8.062;2023-10-31T08:50:25;13.80;99.90
8711;DHT22;4392;47.400;8.062;2023-10-31T08:52:51;13.60;99.90
8711;DHT22;4392;47.400;8.062;2023-10-31T08:55:17;13.40;99.90
8711;DHT22;4392;47.400;8.062;2023-10-31T08:57:42;13.30;99.90
8711;DHT22;4392;47.400;8.062;2023-10-31T09:00:08;13.10;99.90
8711;DHT22;4392;47.400;8.062;2023-10-31T09:02:34;13.10;99.90
8711;DHT22;4392;47.400;8.062;2023-10-31T09:05:00;12.80;99.90
8711;DHT22;4392;47.400;8.062;2023-10-31T09:07:25;12.50;99.90
8711;DHT22;4392;47.400;8.062;2023-10-31T09:09:51;12.80;99.90
8711;DHT22;4392;47.400;8.062;2023-10-31T09:12:16;12.70;99.90
8711;DHT22;4392;47.400;8.062;2023-10-31T09:14:42;12.70;99.90
8711;DHT22;4392;47.400;8.062;2023-10-31T09:17:08;12.80;99.90
8711;DHT22;4392;47.400;8.062;2023-10-31T09:19:33;12.90;99.90
8711;DHT22;4392;47.400;8.062;2023-10-31T09:21:59;13.10;99.90
8711;DHT22;4392;47.400;8.062;2023-10-31T09:24:25;13.10;99.90
8711;DHT22;4392;47.400;8.062;2023-10-31T09:26:50;13.10;99.90
8711;DHT22;4392;47.400;8.062;2023-10-31T09:29:16;13.20;99.90
8711;DHT22;4392;47.400;8.062;2023-10-31T09:31:41;13.20;99.90
8711;DHT22;4392;47.400;8.062;2023-10-31T09:34:07;13.20;99.90
8711;DHT22;4392;47.400;8.062;2023-10-31T09:36:33;13.20;99.90
8711;DHT22;4392;47.400;8.062;2023-10-31T09:39:04;13.80;99.90
8711;DHT22;4392;47.400;8.062;2023-10-31T09:41:30;14.40;99.90
8711;DHT22;4392;47.400;8.062;2023-10-31T09:43:57;14.10;99.90
8711;DHT22;4392;47.400;8.062;2023-10-31T09:46:23;14.00;99.90
8711;DHT22;4392;47.400;8.062;2023-10-31T09:48:49;13.80;99.90
8711;DHT22;4392;47.400;8.062;2023-10-31T09:51:15;13.80;99.90
8711;DHT22;4392;47.400;8.062;2023-10-31T09:53:43;13.80;99.90
8711;DHT22;4392;47.400;8.062;2023-10-31T09:56:10;13.80;99.90
8711;DHT22;4392;47.400;8.062;2023-10-31T09:58:36;13.90;99.90
8711;DHT22;4392;47.400;8.062;2023-10-31T10:01:02;13.70;99.90
8711;DHT22;4392;47.400;8.062;2023-10-31T10:03:29;13.60;99.90
8711;DHT22;4392;47.400;8.062;2023-10-31T10:05:55;13.50;99.90
8711;DHT22;4392;47.400;8.062;2023-10-31T10:08:21;13.60;99.90
8711;DHT22;4392;47.400;8.062;2023-10-31T10:10:48;13.70;99.90
8711;DHT22;4392;47.400;8.062;2023-10-31T10:13:18;13.70;99.90
8711;DHT22;4392;47.400;8.062;2023-10-31T10:15:48;13.70;99.90
8711;DHT22;4392;47.400;8.062;2023-10-31T10:21:00;14.90;99.90
8711;DHT22;4392;47.400;8.062;2023-10-31T10:23:26;14.60;99.90
8711;DHT22;4392;47.400;8.062;2023-10-31T10:25:53;14.10;99.90
8711;DHT22;4392;47.400;8.062;2023-10-31T10:28:19;13.90;99.90
8711;DHT22;4392;47.400;8.062;2023-10-31T10:30:46;13.80;99.90
8711;DHT22;4392;47.400;8.062;2023-10-31T10:33:13;13.70;99.90
8711;DHT22;4392;47.400;8.062;2023-10-31T10:35:39;13.80;99.90
8711;DHT22;4392;47.400;8.062;2023-10-31T10:38:14;13.60;99.90
8711;DHT22;4392;47.400;8.062;2023-10-31T10:40:41;13.70;99.90
8711;DHT22;4392;47.400;8.062;2023-10-31T10:43:16;13.60;99.90
8711;DHT22;4392;47.400;8.062;2023-10-31T10:45:44;13.50;99.90
8711;DHT22;4392;47.400;8.062;2023-10-31T10:48:14;13.50;99.90
8711;DHT22;4392;47.400;8.062;2023-10-31T10:50:43;13.50;99.90
8711;DHT22;4392;47.400;8.062;2023-10-31T10:53:21;13.60;99.90
8711;DHT22;4392;47.400;8.062;2023-10-31T10:55:51;13.50;99.90
8711;DHT22;4392;47.400;8.062;2023-10-31T10:58:29;13.40;99.90
8711;DHT22;4392;47.400;8.062;2023-10-31T11:00:57;13.40;99.90
8711;DHT22;4392;47.400;8.062;2023-10-31T11:03:26;13.50;99.90
8711;DHT22;4392;47.400;8.062;2023-10-31T11:05:55;13.60;99.90
8711;DHT22;4392;47.400;8.062;2023-10-31T11:08:23;13.60;99.90
8711;DHT22;4392;47.400;8.062;2023-10-31T11:10:51;13.70;99.90
8711;DHT22;4392;47.400;8.062;2023-10-31T11:13:17;13.70;99.90
8711;DHT22;4392;47.400;8.062;2023-10-31T11:15:43;13.70;99.90
8711;DHT22;4392;47.400;8.062;2023-10-31T11:18:10;13.70;99.90
8711;DHT22;4392;47.400;8.062;2023-10-31T11:20:39;13.60;99.90
8711;DHT22;4392;47.400;8.062;2023-10-31T11:23:04;13.60;99.90
8711;DHT22;4392;47.400;8.062;2023-10-31T11:25:32;13.50;99.90
8711;DHT22;4392;47.400;8.062;2023-10-31T11:28:14;13.50;99.90
8711;DHT22;4392;47.400;8.062;2023-10-31T11:30:40;13.50;99.90
8711;DHT22;4392;47.400;8.062;2023-10-31T11:33:11;13.50;99.90
8711;DHT22;4392;47.400;8.062;2023-10-31T11:35:39;13.60;99.90
8711;DHT22;4392;47.400;8.062;2023-10-31T11:38:06;13.40;99.90
8711;DHT22;4392;47.400;8.062;2023-10-31T11:40:33;13.50;99.90
8711;DHT22;4392;47.400;8.062;2023-10-31T11:43:02;13.40;99.90
8711;DHT22;4392;47.400;8.062;2023-10-31T11:45:42;13.50;99.90
8711;DHT22;4392;47.400;8.062;2023-10-31T11:48:10;13.60;99.90
8711;DHT22;4392;47.400;8.062;2023-10-31T11:50:37;13.60;99.90
8711;DHT22;4392;47.400;8.062;2023-10-31T11:53:04;13.60;99.90
8711;DHT22;4392;47.400;8.062;2023-10-31T11:55:35;13.60;99.90
8711;DHT22;4392;47.400;8.062;2023-10-31T11:58:22;13.60;99.90
8711;DHT22;4392;47.400;8.062;2023-10-31T12:00:49;13.60;99.90
8711;DHT22;4392;47.400;8.062;2023-10-31T12:03:21;13.60;99.90
8711;DHT22;4392;47.400;8.062;2023-10-31T12:05:52;14.20;99.90
8711;DHT22;4392;47.400;8.062;2023-10-31T12:11:15;15.10;99.90
8711;DHT22;4392;47.400;8.062;2023-10-31T12:14:02;14.50;99.90
8711;DHT22;4392;47.400;8.062;2023-10-31T12:16:34;14.20;99.90
8711;DHT22;4392;47.400;8.062;2023-10-31T12:19:02;13.90;99.90
8711;DHT22;4392;47.400;8.062;2023-10-31T12:21:42;14.40;99.90
8711;DHT22;4392;47.400;8.062;2023-10-31T12:24:13;14.80;99.90
8711;DHT22;4392;47.400;8.062;2023-10-31T12:26:39;15.10;99.90
8711;DHT22;4392;47.400;8.062;2023-10-31T12:31:34;15.20;99.90
8711;DHT22;4392;47.400;8.062;2023-10-31T12:34:11;15.30;99.90
8711;DHT22;4392;47.400;8.062;2023-10-31T12:36:37;15.20;99.90
8711;DHT22;4392;47.400;8.062;2023-10-31T12:39:13;15.40;99.90
8711;DHT22;4392;47.400;8.062;2023-10-31T12:41:42;15.30;99.90
8711;DHT22;4392;47.400;8.062;2023-10-31T12:44:09;15.10;99.90
8711;DHT22;4392;47.400;8.062;2023-10-31T12:46:38;15.30;99.90
8711;DHT22;4392;47.400;8.062;2023-10-31T12:49:04;15.00;99.90
8711;DHT22;4392;47.400;8.062;2023-10-31T12:51:30;14.70;99.90
8711;DHT22;4392;47.400;8.062;2023-10-31T12:53:55;14.60;99.90
8711;DHT22;4392;47.400;8.062;2023-10-31T12:56:41;14.80;99.90
8711;DHT22;4392;47.400;8.062;2023-10-31T12:59:08;15.10;99.90
8711;DHT22;4392;47.400;8.062;2023-10-31T13:01:36;14.70;99.90
8711;DHT22;4392;47.400;8.062;2023-10-31T13:04:03;14.40;99.90
8711;DHT22;4392;47.400;8.062;2023-10-31T13:06:29;14.10;99.90
8711;DHT22;4392;47.400;8.062;2023-10-31T13:08:58;14.00;99.90
8711;DHT22;4392;47.400;8.062;2023-10-31T13:11:30;14.40;99.90
8711;DHT22;4392;47.400;8.062;2023-10-31T13:13:56;14.50;99.90
8711;DHT22;4392;47.400;8.062;2023-10-31T13:16:22;14.30;99.90
8711;DHT22;4392;47.400;8.062;2023-10-31T13:18:47;14.00;99.90
8711;DHT22;4392;47.400;8.062;2023-10-31T13:21:14;14.00;99.90
8711;DHT22;4392;47.400;8.062;2023-10-31T13:23:43;14.60;99.90
8711;DHT22;4392;47.400;8.062;2023-10-31T13:26:11;15.20;99.90
8711;DHT22;4392;47.400;8.062;2023-10-31T13:28:37;15.30;99.90
8711;DHT22;4392;47.400;8.062;2023-10-31T13:31:05;15.30;99.90
8711;DHT22;4392;47.400;8.062;2023-10-31T13:33:31;15.10;99.90
8711;DHT22;4392;47.400;8.062;2023-10-31T13:35:56;15.10;99.90
8711;DHT22;4392;47.400;8.062;2023-10-31T13:38:24;15.00;99.90
8711;DHT22;4392;47.400;8.062;2023-10-31T13:40:50;15.00;99.90
8711;DHT22;4392;47.400;8.062;2023-10-31T13:43:15;14.90;99.90
8711;DHT22;4392;47.400;8.062;2023-10-31T13:45:41;14.90;99.90
8711;DHT22;4392;47.400;8.062;2023-10-31T13:48:07;15.10;99.90
8711;DHT22;4392;47.400;8.062;2023-10-31T13:50:33;15.20;99.90
8711;DHT22;4392;47.400;8.062;2023-10-31T13:52:59;15.30;99.90
8711;DHT22;4392;47.400;8.062;2023-10-31T13:55:24;15.20;99.90
8711;DHT22;4392;47.400;8.062;2023-10-31T13:57:51;14.70;99.90
8711;DHT22;4392;47.400;8.062;2023-10-31T14:00:16;14.40;99.90
8711;DHT22;4392;47.400;8.062;2023-10-31T14:02:44;14.20;99.90
8711;DHT22;4392;47.400;8.062;2023-10-31T14:05:10;14.30;99.90
8711;DHT22;4392;47.400;8.062;2023-10-31T14:07:36;14.30;99.90
8711;DHT22;4392;47.400;8.062;2023-10-31T14:10:01;14.40;99.90
8711;DHT22;4392;47.400;8.062;2023-10-31T14:12:29;14.80;99.90
8711;DHT22;4392;47.400;8.062;2023-10-31T14:14:55;14.40;99.90
8711;DHT22;4392;47.400;8.062;2023-10-31T14:17:21;14.00;99.90
8711;DHT22;4392;47.400;8.062;2023-10-31T14:19:48;14.00;99.90
8711;DHT22;4392;47.400;8.062;2023-10-31T14:22:14;13.90;99.90
8711;DHT22;4392;47.400;8.062;2023-10-31T14:24:42;13.80;99.90
8711;DHT22;4392;47.400;8.062;2023-10-31T14:27:08;13.70;99.90
8711;DHT22;4392;47.400;8.062;2023-10-31T14:29:34;13.60;99.90
8711;DHT22;4392;47.400;8.062;2023-10-31T14:32:07;13.70;99.90
8711;DHT22;4392;47.400;8.062;2023-10-31T14:34:33;13.60;99.90
8711;DHT22;4392;47.400;8.062;2023-10-31T14:36:59;13.60;99.90
8711;DHT22;4392;47.400;8.062;2023-10-31T14:39:25;13.50;99.90
8711;DHT22;4392;47.400;8.062;2023-10-31T14:41:50;13.50;99.90
8711;DHT22;4392;47.400;8.062;2023-10-31T14:44:16;13.60;99.90
8711;DHT22;4392;47.400;8.062;2023-10-31T14:46:41;13.70;99.90
8711;DHT22;4392;47.400;8.062;2023-10-31T14:49:07;13.60;99.90
8711;DHT22;4392;47.400;8.062;2023-10-31T14:51:35;13.60;99.90
8711;DHT22;4392;47.400;8.062;2023-10-31T14:54:01;13.60;99.90
8711;DHT22;4392;47.400;8.062;2023-10-31T14:56:26;13.60;99.90
8711;DHT22;4392;47.400;8.062;2023-10-31T14:58:55;13.50;99.90
8711;DHT22;4392;47.400;8.062;2023-10-31T15:01:20;13.60;99.90
8711;DHT22;4392;47.400;8.062;2023-10-31T15:03:46;13.50;99.90
8711;DHT22;4392;47.400;8.062;2023-10-31T15:06:12;13.40;99.90
8711;DHT22;4392;47.400;8.062;2023-10-31T15:08:37;13.40;99.90
8711;DHT22;4392;47.400;8.062;2023-10-31T15:11:03;13.50;99.90
8711;DHT22;4392;47.400;8.062;2023-10-31T15:13:32;13.50;99.90
8711;DHT22;4392;47.400;8.062;2023-10-31T15:15:58;13.50;99.90
8711;DHT22;4392;47.400;8.062;2023-10-31T15:18:23;13.50;99.90
8711;DHT22;4392;47.400;8.062;2023-10-31T15:20:49;13.30;99.90
8711;DHT22;4392;47.400;8.062;2023-10-31T15:23:15;13.50;99.90
8711;DHT22;4392;47.400;8.062;2023-10-31T15:25:40;13.40;99.90
8711;DHT22;4392;47.400;8.062;2023-10-31T15:28:06;14.10;99.90
8711;DHT22;4392;47.400;8.062;2023-10-31T15:30:32;14.30;99.90
8711;DHT22;4392;47.400;8.062;2023-10-31T15:32:58;14.20;99.90
8711;DHT22;4392;47.400;8.062;2023-10-31T15:35:24;14.10;99.90
8711;DHT22;4392;47.400;8.062;2023-10-31T15:37:50;14.70;99.90
8711;DHT22;4392;47.400;8.062;2023-10-31T15:40:16;14.40;99.90
8711;DHT22;4392;47.400;8.062;2023-10-31T15:42:41;14.00;99.90
8711;DHT22;4392;47.400;8.062;2023-10-31T15:45:07;13.80;99.90
8711;DHT22;4392;47.400;8.062;2023-10-31T15:47:33;13.60;99.90
8711;DHT22;4392;47.400;8.062;2023-10-31T15:49:59;13.60;99.90
8711;DHT22;4392;47.400;8.062;2023-10-31T15:52:24;13.60;99.90
8711;DHT22;4392;47.400;8.062;2023-10-31T15:54:50;13.50;99.90
8711;DHT22;4392;47.400;8.062;2023-10-31T15:57:16;14.30;99.90
8711;DHT22;4392;47.400;8.062;2023-10-31T15:59:46;14.30;99.90
8711;DHT22;4392;47.400;8.062;2023-10-31T16:02:12;14.10;99.90
8711;DHT22;4392;47.400;8.062;2023-10-31T16:04:37;14.00;99.90
8711;DHT22;4392;47.400;8.062;2023-10-31T16:07:04;13.60;99.90